Latest Coastal Weather Observations for Bowen Airport AWS

IDQ60701

Issued at 12:52 pm EST Saturday 25 May 2024 (issued every 10 minutes, with the page automatically refreshed every 10 minutes)

About coastal observations | Map of coastal stations | Coastal observations for QLD | Marine services | Other Formats
Station Details ID: 033327 Name: BOWEN AIRPORT AWS Lat: -20.02 Lon: 148.21 Height: 5.9 m
Data from the previous 72 hours. | See also: Recent months at Bowen Airport AWS
Date/Time
EST
Wind Sea
Height
m
Swell Vis
km
Cloud Weather Temp
°C
Press
MSL
hPa
Rain since
9am
mm
Dir  Spd
kts
Gust
kts
Height
m
Period
s
Dir
25/12:30pm SE 14 18 - - - - - - - 25.8 1019.1 0.0
25/12:00pm SE 15 18 - - - - - - - 25.4 1019.3 0.0
25/11:30am SE 14 17 - - - - - - - 25.9 1019.7 0.0
25/11:00am SE 16 20 - - - - - - - 24.7 1020.0 0.0
25/10:30am SE 14 18 - - - - - - - 24.4 1020.4 0.0
25/10:00am SE 14 17 - - - - - - - 23.7 1020.5 0.0
25/09:30am SE 14 19 - - - - - - - 23.3 1020.5 0.0
25/09:00am SE 15 18 - - - - - - - 22.2 1020.3 0.0
25/08:30am SE 15 19 - - - - - - - 21.9 1020.0 0.0
25/08:00am SE 14 19 - - - - - - - 20.8 1020.0 0.0
25/07:30am SE 13 18 - - - - - - - 20.2 1019.8 0.0
25/07:00am SE 14 19 - - - - - - - 19.7 1019.7 0.0
25/06:30am SSE 12 15 - - - - - - - 19.1 1019.4 0.0
25/06:00am SSE 13 17 - - - - - - - 19.0 1019.1 0.0
25/05:30am SSE 13 17 - - - - - - - 19.1 1019.0 0.0
25/05:00am SSE 12 17 - - - - - - - 19.1 1018.8 0.0
25/04:30am SSE 11 15 - - - - - - - 19.1 1018.7 0.0
25/04:00am SE 14 18 - - - - - - - 19.5 1018.6 0.0
25/03:30am SE 13 17 - - - - - - - 19.7 1018.6 0.0
25/03:00am SE 15 21 - - - - - - - 19.8 1018.6 0.0
25/02:30am SE 16 21 - - - - - - - 19.9 1018.9 0.0
25/02:00am SE 14 18 - - - - - - - 19.9 1019.3 0.0
25/01:30am SSE 12 17 - - - - - - - 19.9 1019.5 0.0
25/01:00am SSE 12 17 - - - - - - - 19.9 1019.8 0.0
25/12:30am SSE 11 15 - - - - - - - 19.8 1019.9 0.0
25/12:00am SSE 12 16 - - - - - - - 20.1 1020.1 0.0
 
Date/Time
EST
Wind Sea
Height
m
Swell Vis
km
Cloud Weather Temp
°C
Press
MSL
hPa
Rain since
9am
mm
Dir  Spd
kts
Gust
kts
Height
m
Period
s
Dir
24/11:30pm SSE 10 14 - - - - - - - 19.9 1020.1 0.0
24/11:00pm SSE 11 13 - - - - - - - 20.1 1020.2 0.0
24/10:30pm SSE 12 15 - - - - - - - 20.2 1020.4 0.0
24/10:00pm SSE 9 12 - - - - - - - 19.9 1020.3 0.0
24/09:30pm SSE 9 13 - - - - - - - 19.9 1020.3 0.0
24/09:00pm SSE 9 13 - - - - - - - 20.0 1020.2 0.0
24/08:30pm SSE 10 12 - - - - - - - 20.2 1019.9 0.0
24/08:00pm SSE 9 13 - - - - - - - 20.1 1020.1 0.0
24/07:30pm SSE 12 16 - - - - - - - 20.0 1019.8 0.0
24/07:00pm SE 12 18 - - - - - - - 20.7 1019.6 0.0
24/06:30pm ESE 16 23 - - - - - - - 20.2 1019.5 0.0
24/06:13pm ESE 15 25 - - - - - - - 21.0 1019.2 0.0
24/06:00pm SE 7 10 - - - - - - - 22.9 1018.8 0.0
24/05:30pm ESE 9 11 - - - - - - - 23.5 1018.3 0.0
24/05:00pm SE 7 9 - - - - - - - 23.7 1018.3 0.0
24/04:30pm ESE 19 25 - - - - - - - 23.4 1017.9 0.0
24/04:22pm ESE 15 25 - - - - - - - 24.4 1017.8 0.0
24/04:00pm ESE 10 14 - - - - - - - 25.8 1017.5 0.0
24/03:30pm ESE 12 16 - - - - - - - 26.3 1017.3 0.0
24/03:00pm ESE 10 14 - - - - - - - 26.5 1017.5 0.0
24/02:30pm ESE 10 16 - - - - - - - 26.3 1017.4 0.0
24/02:00pm ESE 14 20 - - - - - - - 26.5 1017.3 0.0
24/01:30pm ESE 13 19 - - - - - - - 25.6 1017.9 0.0
24/01:00pm ESE 9 17 - - - - - - - 27.3 1018.1 0.0
24/12:30pm ESE 9 12 - - - - - - - 25.5 1018.5 0.0
24/12:00pm SE 13 17 - - - - - - - 24.5 1018.7 0.0
24/11:30am SE 13 21 - - - - - - - 23.9 1019.3 0.0
24/11:00am SE 11 13 - - - - - - - 24.1 1019.0 0.0
24/10:30am SE 11 14 - - - - - - - 23.7 1019.7 0.0
24/10:00am SE 13 16 - - - - - - - 22.7 1019.9 0.0
24/09:30am SE 12 17 - - - - - - - 23.5 1019.7 0.0
24/09:00am SE 9 11 - - - - - - - 23.2 1019.5 0.0
24/08:30am SE 11 15 - - - - - - - 21.7 1019.5 0.0
24/08:00am SE 11 15 - - - - - - - 20.9 1019.3 0.0
24/07:30am SE 9 12 - - - - - - - 20.5 1018.9 0.0
24/07:00am SSE 9 15 - - - - - - - 20.0 1019.0 0.0
24/06:30am SE 10 13 - - - - - - - 20.1 1018.8 0.0
24/06:00am SSE 9 12 - - - - - - - 19.6 1018.5 0.0
24/05:30am SSE 10 14 - - - - - - - 19.6 1018.0 0.0
24/05:00am SSE 9 13 - - - - - - - 19.6 1017.9 0.0
24/04:30am SSE 9 12 - - - - - - - 19.5 1018.1 0.0
24/04:00am SSE 10 15 - - - - - - - 19.7 1018.1 0.0
24/03:30am SSE 10 13 - - - - - - - 19.7 1018.1 0.0
24/03:00am SSE 11 14 - - - - - - - 19.8 1018.2 0.0
24/02:30am SSE 9 13 - - - - - - - 20.1 1018.5 0.0
24/02:00am SSE 10 12 - - - - - - - 20.2 1018.8 0.0
24/01:30am SSE 9 13 - - - - - - - 20.3 1019.1 0.0
24/01:00am SSE 10 14 - - - - - - - 20.1 1019.1 0.0
24/12:30am SSE 10 13 - - - - - - - 20.1 1019.4 0.0
24/12:00am SSE 9 12 - - - - - - - 20.4 1019.5 0.0
 
Date/Time
EST
Wind Sea
Height
m
Swell Vis
km
Cloud Weather Temp
°C
Press
MSL
hPa
Rain since
9am
mm
Dir  Spd
kts
Gust
kts
Height
m
Period
s
Dir
23/11:30pm SSE 13 17 - - - - - - - 20.3 1019.7 0.0
23/11:00pm SSE 12 16 - - - - - - - 20.0 1019.6 0.0
23/10:30pm SSE 13 18 - - - - - - - 20.9 1019.6 0.0
23/10:00pm SSE 12 18 - - - - - - - 21.0 1019.6 0.0
23/09:30pm SSE 15 22 - - - - - - - 21.0 1019.8 0.0
23/09:00pm SE 14 19 - - - - - - - 21.4 1019.8 0.0
23/08:30pm SE 13 17 - - - - - - - 21.5 1019.8 0.0
23/08:00pm SSE 13 20 - - - - - - - 21.4 1019.7 0.0
23/07:30pm SE 13 17 - - - - - - - 21.7 1019.5 0.0
23/07:00pm SSE 12 17 - - - - - - - 21.8 1019.2 0.0
23/06:30pm SE 13 19 - - - - - - - 22.2 1018.9 0.0
23/06:00pm SE 14 20 - - - - - - - 22.4 1018.6 0.0
23/05:30pm SE 15 19 - - - - - - - 22.9 1018.3 0.0
23/05:00pm SE 14 20 - - - - - - - 23.3 1018.0 0.0
23/04:30pm SE 17 21 - - - - - - - 24.1 1017.7 0.0
23/04:00pm SE 15 19 - - - - - - - 25.0 1017.5 0.0
23/03:30pm SE 14 19 - - - - - - - 25.4 1017.3 0.0
23/03:00pm SE 16 21 - - - - - - - 25.4 1017.4 0.0
23/02:30pm SE 17 21 - - - - - - - 25.7 1017.5 0.0
23/02:00pm SE 17 21 - - - - - - - 26.4 1017.5 0.0
23/01:30pm SE 14 17 - - - - - - - 26.3 1017.7 0.0
23/01:00pm SE 15 18 - - - - - - - 26.1 1018.0 0.0
23/12:30pm SE 16 21 - - - - - - - 26.1 1018.5 0.0
23/12:00pm SE 16 22 - - - - - - - 25.2 1018.9 0.0
23/11:30am SE 15 20 - - - - - - - 25.0 1019.1 0.0
23/11:00am SE 18 22 - - - - - - - 24.6 1019.4 0.0
23/10:30am SE 17 21 - - - - - - - 24.8 1019.7 0.0
23/10:00am SE 15 20 - - - - - - - 24.4 1019.8 0.0
23/09:30am SE 16 20 - - - - - - - 23.7 1019.7 0.0
23/09:00am SE 15 19 - - - - - - - 22.6 1019.7 0.0
23/08:30am SE 15 20 - - - - - - - 22.3 1019.5 0.0
23/08:00am SE 13 19 - - - - - - - 21.4 1019.3 0.0
23/07:30am SE 11 15 - - - - - - - 20.6 1018.9 0.0
23/07:00am SE 10 15 - - - - - - - 19.6 1018.5 0.0
23/06:30am SE 11 15 - - - - - - - 19.2 1018.3 0.0
23/06:00am SE 14 19 - - - - - - - 19.1 1018.0 0.0
23/05:30am SE 14 19 - - - - - - - 19.4 1017.6 0.0
23/05:00am SE 14 17 - - - - - - - 19.1 1017.5 0.0
23/04:30am SE 14 17 - - - - - - - 19.3 1017.6 0.0
23/04:00am SE 14 19 - - - - - - - 19.6 1017.5 0.0
23/03:30am SE 15 20 - - - - - - - 19.7 1017.4 0.0
23/03:00am SE 14 18 - - - - - - - 20.0 1017.3 0.0
23/02:30am SE 14 19 - - - - - - - 20.2 1017.6 0.0
23/02:00am SE 13 18 - - - - - - - 20.4 1018.0 0.0
23/01:30am SE 12 16 - - - - - - - 20.5 1018.3 0.0
23/01:00am SE 12 16 - - - - - - - 20.4 1018.5 0.0
23/12:30am SE 12 17 - - - - - - - 20.5 1018.5 0.0
23/12:00am SE 13 16 - - - - - - - 20.6 1018.4 0.0
 
Date/Time
EST
Wind Sea
Height
m
Swell Vis
km
Cloud Weather Temp
°C
Press
MSL
hPa
Rain since
9am
mm
Dir  Spd
kts
Gust
kts
Height
m
Period
s
Dir
22/11:30pm SE 14 18 - - - - - - - 20.7 1018.6 0.0
22/11:00pm SE 11 16 - - - - - - - 20.6 1018.8 0.0
22/10:30pm SE 9 13 - - - - - - - 20.5 1019.0 0.0
22/10:00pm SE 9 13 - - - - - - - 20.4 1019.1 0.0
22/09:30pm SE 10 13 - - - - - - - 20.7 1019.3 0.0
22/09:00pm SE 9 13 - - - - - - - 20.9 1019.4 0.0
22/08:30pm SE 10 12 - - - - - - - 21.1 1019.3 0.0
22/08:00pm SE 10 13 - - - - - - - 21.2 1019.2 0.0
22/07:30pm SE 10 14 - - - - - - - 21.4 1018.9 0.0
22/07:00pm SE 10 13 - - - - - - - 21.7 1018.6 0.0
22/06:30pm SE 12 15 - - - - - - - 22.1 1018.2 0.0
22/06:00pm SE 10 15 - - - - - - - 22.9 1017.8 0.0
22/05:30pm ESE 11 13 - - - - - - - 23.5 1017.3 0.0
22/05:00pm E 11 15 - - - - - - - 24.1 1016.9 0.0
22/04:30pm E 12 16 - - - - - - - 24.6 1016.6 0.0
22/04:00pm ESE 13 18 - - - - - - - 25.4 1016.4 0.0
22/03:30pm SE 15 19 - - - - - - - 25.6 1016.1 0.0
22/03:00pm ESE 17 21 - - - - - - - 26.1 1016.0 0.0
22/02:30pm ESE 16 19 - - - - - - - 26.1 1016.2 0.0
22/02:00pm ESE 14 18 - - - - - - - 26.3 1016.7 0.0
22/01:30pm ESE 15 19 - - - - - - - 26.5 1016.9 0.0
22/01:00pm SE 14 19 - - - - - - - 26.9 1017.2 0.0

Other formats

Comma delimited format used in spreadsheet applications
http://www.bom.gov.au/fwo/IDQ60701/IDQ60701.94383.axf

JavaScript Object Notation format (JSON) in row-major order
http://www.bom.gov.au/fwo/IDQ60701/IDQ60701.94383.json

Data quality

Most of these data are generated automatically and are frequently updated. Quality checks on data are not normally performed. It is possible for incorrect values to appear. Refer to information at About Latest Weather Observations and please check the disclaimer before using these data.